Pagina principale
METAR-TAF:

METAR-TAF

Aeroporti :

Aeroporto Internazionale del Bahrein

Bahrain, Bahrain

latitudine: 26-16N, longitudine: 050-39E, altezza: 2 m

Osservazione

Il bollettino è stato emesso 26 minuti fa, alle 11:00 UTC
Vento 8 kt da est, variando fra est/nord-est e sud-est
Temperature 33°C
Umidità 41%
Pressione 1009 hPa
Visibilità: 6000 m

METAR: OBBI 211100Z 10008KT 070V130 6000 NSC 33/18 Q1009 NOSIG

Ora: 14:26 (11:26 UTC)

Previsione

Il bollettino è stato emesso 6 ore e 26 minuti fa, alle 05:00 UTC
Previsione valida dal 21 alle 06 UTC al 22 alle 12 UTC
Vento 8 kt da nord/nord-est
Visibilità: 8000 m
Temporaneamente
dal 21 alle 06 UTC al 21 alle 08 UTC
Visibilità: 5000 m
polvere diffusa

TAF: OBBI 210500Z 2106/2212 03008KT 8000 NSC TEMPO 2106/2108 5000 DU

Osservazioni e previsioni meteorologiche di più di 4000 aeroporti (messaggi METAR e TAF).

Le stazioni disponibili sono rappresentate dai dischi gialli e rossi sulla carta.

Puntare il mouse per vedere il nome della stazione.

Clicca sopra per visualizzare le osservazioni e previsioni meteorologiche.

Per cambiare la mappa : fare clic sui pulsanti verdi con una croce nera per ingrandire, il pulsante verde con un trattino per diminuire, o sulla freccia verde per le mappe adiacenti.


METAR-TAF: